Time;durP1;ratioP1;P1;durP2;ratioP2;P2;SDS_P1;SDS_P2;PMS_P1;PMS_P2;Temp;Humidity;BMP_temperature;BMP_pressure;BME280_temperature;BME280_humidity;BME280_pressure;Samples;Min_cycle;Max_cycle;Signal;HPM_P1;HPM_P2
2022/09/23 00:00:08;;;;;;;2.42;0.80;;;;;;;9.15;100.00;101683.06;6221702;28;20057;-75
2022/09/23 00:03:10;;;;;;;1.90;1.13;;;;;;;9.17;100.00;101684.78;6221853;28;20057;-75
2022/09/23 00:06:14;;;;;;;2.35;1.52;;;;;;;9.13;100.00;101699.78;6221401;28;20050;-75
2022/09/23 00:09:15;;;;;;;1.83;1.00;;;;;;;9.11;100.00;101698.97;6221898;28;20053;-75
2022/09/23 00:12:18;;;;;;;3.38;1.30;;;;;;;9.12;100.00;101680.53;6221569;28;20050;-75
2022/09/23 00:15:20;;;;;;;1.83;1.40;;;;;;;9.13;100.00;101692.78;6221304;28;20445;-75
2022/09/23 00:18:22;;;;;;;4.93;1.40;;;;;;;9.12;100.00;101690.19;6221862;28;20091;-75
2022/09/23 00:21:24;;;;;;;2.45;1.30;;;;;;;9.09;100.00;101674.56;6221431;28;20065;-76
2022/09/23 00:24:31;;;;;;;3.55;1.30;;;;;;;9.07;100.00;101678.97;6221292;28;20057;-75
2022/09/23 00:27:34;;;;;;;3.65;1.42;;;;;;;9.10;100.00;101678.88;6221766;28;20131;-75
2022/09/23 00:30:35;;;;;;;1.10;1.00;;;;;;;9.08;100.00;101671.09;6221407;28;20060;-75
2022/09/23 00:33:37;;;;;;;1.80;1.08;;;;;;;9.09;100.00;101669.31;6221268;28;20421;-75
2022/09/23 00:36:39;;;;;;;3.33;1.40;;;;;;;9.06;100.00;101672.03;6221303;28;20053;-74
2022/09/23 00:39:40;;;;;;;2.92;1.45;;;;;;;9.07;100.00;101671.13;6221361;28;20131;-75
2022/09/23 00:42:47;;;;;;;4.28;1.70;;;;;;;9.02;100.00;101673.03;6221372;28;20050;-74
2022/09/23 00:45:50;;;;;;;2.63;1.45;;;;;;;9.04;100.00;101663.38;6220873;28;20061;-75
2022/09/23 00:48:57;;;;;;;3.30;1.23;;;;;;;9.03;100.00;101662.47;6221537;28;20069;-75
2022/09/23 00:52:02;;;;;;;2.90;1.42;;;;;;;8.98;100.00;101656.53;6221125;28;20050;-75
2022/09/23 00:55:07;;;;;;;4.97;1.98;;;;;;;8.96;100.00;101660.13;6220899;28;20053;-75
2022/09/23 00:58:14;;;;;;;7.40;1.60;;;;;;;8.92;100.00;101659.38;6224665;28;20144;-75
2022/09/23 01:01:15;;;;;;;3.30;1.83;;;;;;;8.81;100.00;101662.34;6225524;28;20057;-75
2022/09/23 01:04:17;;;;;;;1.92;1.35;;;;;;;8.79;100.00;101652.78;6225041;28;20094;-75
2022/09/23 01:07:20;;;;;;;2.38;1.50;;;;;;;8.72;100.00;101646.91;6225735;28;20061;-75
2022/09/23 01:10:22;;;;;;;2.60;1.42;;;;;;;8.68;100.00;101647.03;6225281;28;20135;-75
2022/09/23 01:13:34;;;;;;;1.30;1.15;;;;;;;8.66;100.00;101640.97;6225321;28;20112;-75
2022/09/23 01:16:43;;;;;;;2.70;1.80;;;;;;;8.64;100.00;101646.28;6225338;28;20050;-74
2022/09/23 01:20:05;;;;;;;2.90;1.38;;;;;;;8.61;100.00;101639.34;6224974;28;20053;-75
2022/09/23 01:23:22;;;;;;;1.38;1.13;;;;;;;8.58;100.00;101636.84;6225697;28;20148;-75
2022/09/23 01:26:40;;;;;;;4.88;1.40;;;;;;;8.60;100.00;101627.16;6224542;28;20046;-75
2022/09/23 01:30:11;;;;;;;2.35;1.25;;;;;;;8.59;100.00;101635.06;6225033;28;20050;-75
2022/09/23 01:33:21;;;;;;;1.85;1.35;;;;;;;8.60;100.00;101623.69;6224880;28;20068;-75
2022/09/23 01:36:24;;;;;;;;;;;;;;;8.61;100.00;101621.00;6224658;28;20054;-75
2022/09/23 01:39:35;;;;;;;1.90;1.40;;;;;;;8.58;100.00;101631.59;6225096;28;19928;-75
2022/09/23 01:42:43;;;;;;;1.77;1.17;;;;;;;8.56;100.00;101615.06;6224370;28;20137;-74
2022/09/23 01:45:47;;;;;;;1.20;1.10;;;;;;;8.55;100.00;101615.13;6224281;28;20111;-75
2022/09/23 01:48:55;;;;;;;1.48;1.23;;;;;;;8.53;100.00;101606.44;6224520;28;20052;-75
2022/09/23 01:52:04;;;;;;;4.30;1.23;;;;;;;8.47;100.00;101610.09;6224466;28;20057;-75
2022/09/23 01:55:10;;;;;;;2.42;1.50;;;;;;;8.45;100.00;101611.03;6224003;28;20054;-74
2022/09/23 01:58:14;;;;;;;2.13;1.30;;;;;;;8.43;100.00;101608.47;6224531;28;20046;-75
2022/09/23 02:01:22;;;;;;;1.40;1.30;;;;;;;8.37;100.00;101608.69;6223928;28;20054;-75
2022/09/23 02:04:30;;;;;;;6.78;1.63;;;;;;;8.30;100.00;101612.34;6224265;28;20068;-74
2022/09/23 02:07:38;;;;;;;2.17;1.52;;;;;;;8.26;100.00;101606.31;6223970;28;20049;-75
2022/09/23 02:10:44;;;;;;;1.23;1.13;;;;;;;8.20;100.00;101601.28;6223751;28;20057;-74
2022/09/23 02:13:52;;;;;;;2.92;1.15;;;;;;;8.24;100.00;101605.53;6223661;28;20502;-75
2022/09/23 02:16:57;;;;;;;1.23;1.00;;;;;;;8.20;100.00;101601.28;6224037;28;20045;-75
2022/09/23 02:20:05;;;;;;;2.15;1.20;;;;;;;8.19;100.00;101603.97;6223674;28;20049;-75
2022/09/23 02:23:11;;;;;;;3.95;1.52;;;;;;;8.13;100.00;101592.75;6224041;28;20196;-75
2022/09/23 02:26:19;;;;;;;6.80;1.40;;;;;;;8.08;100.00;101597.28;6223335;28;20417;-75
2022/09/23 02:29:25;;;;;;;6.78;1.65;;;;;;;8.06;100.00;101588.59;6223690;28;20430;-75
2022/09/23 02:32:34;;;;;;;2.95;1.65;;;;;;;8.03;100.00;101590.44;6223368;28;20050;-75
2022/09/23 02:35:42;;;;;;;3.40;1.53;;;;;;;8.00;100.00;101578.31;6222983;28;20072;-75
2022/09/23 02:38:50;;;;;;;1.08;0.98;;;;;;;7.96;100.00;101583.69;6223572;28;20140;-75
2022/09/23 02:41:59;;;;;;;7.20;1.35;;;;;;;7.88;100.00;101579.53;6223024;28;20081;-75
2022/09/23 02:45:00;;;;;;;2.08;1.45;;;;;;;7.89;100.00;101585.59;6219957;28;20050;-75
2022/09/23 02:48:06;;;;;;;3.13;1.58;;;;;;;7.89;100.00;101580.38;6223416;28;20049;-75
2022/09/23 02:51:10;;;;;;;1.10;1.00;;;;;;;7.88;100.00;101584.75;6222706;28;20058;-75
2022/09/23 02:54:14;;;;;;;2.10;1.13;;;;;;;7.93;100.00;101589.84;6222396;28;20416;-75
2022/09/23 02:57:15;;;;;;;1.92;1.60;;;;;;;7.91;100.00;101585.59;6222950;28;20046;-75
2022/09/23 03:00:17;;;;;;;1.48;1.20;;;;;;;7.89;100.00;101585.59;6222853;28;20057;-75
2022/09/23 03:03:34;;;;;;;3.67;1.30;;;;;;;7.87;100.00;101583.03;6222935;28;20057;-75
2022/09/23 03:06:47;;;;;;;2.08;1.40;;;;;;;7.85;100.00;101578.75;6222613;28;20564;-74
2022/09/23 03:09:54;;;;;;;7.03;1.50;;;;;;;7.87;100.00;101571.72;6222445;28;20060;-75
2022/09/23 03:13:04;;;;;;;1.33;1.15;;;;;;;7.85;100.00;101574.38;6222960;28;20050;-75
2022/09/23 03:16:14;;;;;;;1.95;1.30;;;;;;;7.82;100.00;101578.84;6222177;28;20417;-75
2022/09/23 03:19:26;;;;;;;2.00;1.33;;;;;;;7.85;100.00;101573.50;6222423;28;20053;-75
2022/09/23 03:22:32;;;;;;;2.47;1.73;;;;;;;7.86;100.00;101573.50;6221797;28;20536;-75
2022/09/23 03:25:38;;;;;;;4.57;1.60;;;;;;;7.87;100.00;101567.34;6222083;28;20611;-75
2022/09/23 03:28:42;;;;;;;2.78;1.73;;;;;;;7.85;100.00;101565.66;6222467;28;20076;-75
2022/09/23 03:31:44;;;;;;;2.20;1.10;;;;;;;7.85;100.00;101558.66;6222058;28;20429;-75
2022/09/23 03:34:49;;;;;;;4.43;1.00;;;;;;;7.85;100.00;101560.44;6221833;28;20060;-75
2022/09/23 03:37:57;;;;;;;1.98;1.35;;;;;;;7.87;100.00;101556.03;6222488;28;20068;-75
2022/09/23 03:41:01;;;;;;;3.13;1.67;;;;;;;7.81;100.00;101554.44;6221447;28;20050;-74
2022/09/23 03:44:03;;;;;;;2.58;1.33;;;;;;;7.83;100.00;101557.00;6221385;28;20053;-75
2022/09/23 03:47:06;;;;;;;2.20;1.58;;;;;;;7.83;100.00;101557.88;6222347;28;20054;-75
2022/09/23 03:50:08;;;;;;;2.00;1.48;;;;;;;7.84;100.00;101551.72;6221816;28;20057;-74
2022/09/23 03:53:12;;;;;;;2.85;1.63;;;;;;;7.85;100.00;101542.09;6221153;28;20057;-75
2022/09/23 03:56:14;;;;;;;4.60;1.50;;;;;;;7.83;100.00;101541.31;6221208;28;20546;-75
2022/09/23 03:59:16;;;;;;;2.40;1.60;;;;;;;7.83;100.00;101536.06;6222116;28;20057;-75
2022/09/23 04:02:18;;;;;;;3.58;1.50;;;;;;;7.82;100.00;101534.38;6221847;28;20053;-74
2022/09/23 04:05:19;;;;;;;2.65;1.27;;;;;;;7.81;100.00;101530.00;6221573;28;20049;-75
2022/09/23 04:08:22;;;;;;;1.30;1.20;;;;;;;7.80;100.00;101534.41;6221986;28;20045;-75
2022/09/23 04:11:23;;;;;;;1.63;1.20;;;;;;;7.83;100.00;101523.00;6220920;28;20049;-75
2022/09/23 04:14:25;;;;;;;3.03;1.50;;;;;;;7.86;100.00;101528.16;6221313;28;20056;-75
2022/09/23 04:17:26;;;;;;;3.33;1.40;;;;;;;7.85;100.00;101529.88;6221560;28;20046;-75
2022/09/23 04:20:29;;;;;;;1.85;1.55;;;;;;;7.81;100.00;101524.78;6219883;28;20057;-75
2022/09/23 04:23:31;;;;;;;2.85;1.45;;;;;;;7.82;100.00;101516.91;6217726;28;20579;-75
2022/09/23 04:26:33;;;;;;;7.40;1.40;;;;;;;7.85;100.00;101514.19;6219756;28;20065;-75
2022/09/23 04:29:34;;;;;;;2.63;1.27;;;;;;;7.88;100.00;101518.47;6220393;28;20177;-75
2022/09/23 04:32:36;;;;;;;2.55;1.45;;;;;;;7.92;100.00;101514.00;6223608;28;20057;-75
2022/09/23 04:35:39;;;;;;;1.52;1.23;;;;;;;7.92;100.00;101509.63;6287210;23;20520;-74
2022/09/23 04:38:43;;;;;;;2.10;1.50;;;;;;;7.92;100.00;101512.25;6250755;28;20056;-74
2022/09/23 04:41:45;;;;;;;3.13;1.40;;;;;;;7.87;100.00;101515.00;6228015;28;20049;-74
2022/09/23 04:44:46;;;;;;;2.40;1.65;;;;;;;7.84;100.00;101509.84;6237444;28;20398;-75
2022/09/23 04:47:48;;;;;;;1.38;1.10;;;;;;;7.85;100.00;101508.94;6250662;28;20052;-75
2022/09/23 04:50:49;;;;;;;2.55;1.10;;;;;;;7.84;100.00;101509.84;6250085;28;20080;-75
2022/09/23 04:53:53;;;;;;;2.38;1.27;;;;;;;7.83;100.00;101505.53;6254991;28;20057;-74
2022/09/23 04:56:54;;;;;;;3.75;1.45;;;;;;;7.84;100.00;101496.78;6248256;28;20453;-74
2022/09/23 04:59:56;;;;;;;1.45;1.15;;;;;;;7.84;100.00;101504.63;6248967;28;20114;-75
2022/09/23 05:02:57;;;;;;;3.08;1.35;;;;;;;7.83;100.00;101494.22;6250441;28;20057;-75
2022/09/23 05:05:59;;;;;;;2.38;1.52;;;;;;;7.84;100.00;101504.63;6249766;28;20053;-74
2022/09/23 05:09:04;;;;;;;2.03;1.42;;;;;;;7.83;100.00;101494.22;6250127;28;20405;-74
2022/09/23 05:12:06;;;;;;;2.33;1.30;;;;;;;7.79;100.00;101503.06;6249658;28;20049;-73
2022/09/23 05:15:08;;;;;;;2.67;1.48;;;;;;;7.76;100.00;101503.97;6249936;28;20053;-74
2022/09/23 05:18:09;;;;;;;2.05;1.17;;;;;;;7.75;100.00;101504.91;6250000;28;20046;-74
2022/09/23 05:21:12;;;;;;;2.35;1.33;;;;;;;7.78;100.00;101502.19;6249738;28;20497;-74
2022/09/23 05:24:15;;;;;;;3.22;1.80;;;;;;;7.77;100.00;101500.50;6250090;28;20096;-71
2022/09/23 05:27:16;;;;;;;3.30;1.67;;;;;;;7.79;100.00;101505.66;6249382;28;20049;-74
2022/09/23 05:30:18;;;;;;;3.55;1.42;;;;;;;7.76;100.00;101503.97;6247705;28;20067;-74
2022/09/23 05:33:19;;;;;;;5.07;1.77;;;;;;;7.80;100.00;101492.53;6247744;28;20049;-76
2022/09/23 05:36:22;;;;;;;1.63;1.25;;;;;;;7.82;100.00;101495.13;6248173;28;20053;-75
2022/09/23 05:39:24;;;;;;;3.50;1.70;;;;;;;7.84;100.00;101499.38;6248435;28;20049;-75
2022/09/23 05:42:27;;;;;;;6.07;1.60;;;;;;;7.85;100.00;101490.63;6248384;28;20497;-73
2022/09/23 05:45:28;;;;;;;1.83;1.42;;;;;;;7.86;100.00;101494.97;6248221;28;20068;-74
2022/09/23 05:48:31;;;;;;;6.07;1.80;;;;;;;7.86;100.00;101491.50;6249635;28;20128;-75
2022/09/23 05:51:34;;;;;;;6.20;1.98;;;;;;;7.90;100.00;101485.25;6248903;28;20053;-74
2022/09/23 05:54:37;;;;;;;7.50;1.70;;;;;;;7.95;100.00;101490.34;6248748;28;20077;-74
2022/09/23 05:57:38;;;;;;;2.85;1.90;;;;;;;7.96;100.00;101492.09;6249109;28;20140;-74
2022/09/23 06:00:40;;;;;;;2.33;1.52;;;;;;;7.97;100.00;101480.72;6248711;28;20054;-74
2022/09/23 06:03:42;;;;;;;5.78;1.77;;;;;;;7.99;100.00;101484.97;6248675;28;20049;-74
2022/09/23 06:06:43;;;;;;;2.15;1.42;;;;;;;7.99;100.00;101484.97;6248795;28;20053;-74
2022/09/23 06:09:46;;;;;;;3.25;1.58;;;;;;;7.97;100.00;101481.56;6248778;28;20046;-74
2022/09/23 06:12:47;;;;;;;6.80;1.45;;;;;;;7.97;100.00;101484.19;6248734;28;20049;-73
2022/09/23 06:15:49;;;;;;;2.95;1.67;;;;;;;8.01;100.00;101477.09;6248448;28;20061;-74
2022/09/23 06:18:50;;;;;;;5.75;1.70;;;;;;;8.00;100.00;101484.09;6248366;28;20405;-74
2022/09/23 06:21:51;;;;;;;2.17;1.33;;;;;;;8.02;100.00;101476.19;6248445;28;20054;-74
2022/09/23 06:24:54;;;;;;;13.98;3.28;;;;;;;8.03;100.00;101481.34;6248065;28;20049;-75
2022/09/23 06:27:58;;;;;;;6.75;2.65;;;;;;;8.03;100.00;101483.13;6248310;28;20180;-74
2022/09/23 06:31:00;;;;;;;3.72;2.22;;;;;;;8.02;100.00;101482.28;6248017;28;20050;-75
2022/09/23 06:34:01;;;;;;;3.38;2.05;;;;;;;8.06;100.00;101490.91;6247734;28;20054;-75
2022/09/23 06:37:03;;;;;;;4.00;2.08;;;;;;;8.08;100.00;101486.44;6248178;28;20041;-75
2022/09/23 06:40:06;;;;;;;3.72;1.90;;;;;;;8.10;100.00;101488.13;6247576;28;20053;-74
2022/09/23 06:43:08;;;;;;;4.20;2.72;;;;;;;8.16;100.00;101494.06;6244428;28;20068;-75
2022/09/23 06:46:14;;;;;;;3.58;1.50;;;;;;;8.20;100.00;101491.31;6246612;28;20064;-74
2022/09/23 06:49:15;;;;;;;2.13;1.50;;;;;;;8.26;100.00;101488.50;6248018;28;20068;-74
2022/09/23 06:52:19;;;;;;;2.78;1.83;;;;;;;8.31;100.00;101502.31;6247379;28;20500;-77
2022/09/23 06:55:26;;;;;;;3.85;2.03;;;;;;;8.37;100.00;101490.81;6247243;28;20056;-75
2022/09/23 06:58:27;;;;;;;2.00;1.33;;;;;;;8.44;100.00;101486.22;6247402;28;20416;-75
2022/09/23 07:01:28;;;;;;;4.20;1.75;;;;;;;8.53;100.00;101496.41;6247382;28;20061;-74
2022/09/23 07:04:30;;;;;;;1.95;1.50;;;;;;;8.61;100.00;101502.25;6246994;28;20050;-75
2022/09/23 07:07:31;;;;;;;2.33;1.40;;;;;;;8.75;100.00;101509.66;6247605;28;20049;-76
2022/09/23 07:10:33;;;;;;;1.85;1.35;;;;;;;8.86;100.00;101499.69;6247083;28;20416;-74
2022/09/23 07:13:35;;;;;;;2.95;1.58;;;;;;;8.99;100.00;101500.09;6247292;28;20049;-76
2022/09/23 07:16:37;;;;;;;3.28;1.40;;;;;;;9.13;100.00;101495.25;6247144;28;20064;-74
2022/09/23 07:19:38;;;;;;;3.22;1.55;;;;;;;9.26;100.00;101506.13;6246870;28;20061;-74
2022/09/23 07:22:39;;;;;;;1.77;1.17;;;;;;;9.39;100.00;101507.41;6247259;28;20050;-75
2022/09/23 07:25:42;;;;;;;1.40;1.02;;;;;;;9.50;100.00;101499.16;6246544;28;20053;-74
2022/09/23 07:28:44;;;;;;;1.77;1.02;;;;;;;9.55;100.00;101494.59;6247323;28;20053;-74
2022/09/23 07:31:45;;;;;;;2.55;1.45;;;;;;;9.64;100.00;101499.50;6246530;28;20092;-74
2022/09/23 07:34:47;;;;;;;2.45;1.20;;;;;;;9.72;100.00;101488.69;6246353;28;20417;-76
2022/09/23 07:37:49;;;;;;;1.75;1.15;;;;;;;9.79;100.00;101498.06;6246621;28;20076;-77
2022/09/23 07:40:52;;;;;;;1.00;0.90;;;;;;;9.85;100.00;101496.03;6246634;28;20417;-76
2022/09/23 07:43:57;;;;;;;1.67;1.00;;;;;;;9.95;100.00;101488.69;6245831;28;20049;-76
2022/09/23 07:47:00;;;;;;;1.23;1.13;;;;;;;10.06;100.00;101489.13;6242312;28;20519;-76
2022/09/23 07:50:01;;;;;;;1.20;0.75;;;;;;;10.20;100.00;101485.94;6245015;28;20049;-76
2022/09/23 07:53:03;;;;;;;3.63;0.98;;;;;;;10.27;100.00;101482.22;6244779;28;20409;-76
2022/09/23 07:56:06;;;;;;;1.20;0.88;;;;;;;10.34;100.00;101483.66;6245781;28;20051;-76
2022/09/23 07:59:11;;;;;;;1.13;0.80;;;;;;;10.38;100.00;101479.13;6246403;28;20103;-75
2022/09/23 08:02:15;;;;;;;1.33;0.90;;;;;;;10.40;100.00;101486.06;6246383;28;20053;-77
2022/09/23 08:05:16;;;;;;;1.48;1.02;;;;;;;10.46;100.00;101481.47;6245861;28;20424;-76
2022/09/23 08:08:17;;;;;;;2.30;0.88;;;;;;;10.46;100.00;101479.69;6250399;28;20520;-77
2022/09/23 08:11:20;;;;;;;1.10;0.90;;;;;;;10.53;100.00;101486.38;6251084;28;20057;-74
2022/09/23 08:14:22;;;;;;;1.95;1.23;;;;;;;10.63;100.00;101489.50;6251171;28;20137;-74
2022/09/23 08:17:23;;;;;;;1.52;0.95;;;;;;;10.69;100.00;101483.97;6251388;28;20522;-77
2022/09/23 08:23:45;;;;;;;3.58;0.90;;;;;;;10.84;100.00;101480.69;6250993;28;20057;-78
2022/09/23 08:26:48;;;;;;;2.53;1.05;;;;;;;10.94;100.00;101483.78;6251304;28;20053;-76
2022/09/23 08:29:49;;;;;;;0.98;0.88;;;;;;;11.08;100.00;101475.28;6250997;28;20060;-74
2022/09/23 08:32:51;;;;;;;1.33;0.90;;;;;;;11.15;100.00;101469.69;6251259;28;20049;-76
2022/09/23 08:35:53;;;;;;;0.70;0.60;;;;;;;11.20;100.00;101473.91;6250814;28;20084;-76
2022/09/23 08:38:56;;;;;;;1.33;0.90;;;;;;;11.28;98.60;101472.66;6250885;28;20048;-77
2022/09/23 08:42:11;;;;;;;1.35;0.80;;;;;;;11.39;99.51;101473.00;6250528;28;20188;-76
2022/09/23 08:45:19;;;;;;;1.63;0.82;;;;;;;11.40;100.00;101471.25;6250340;28;20056;-77
2022/09/23 08:48:29;;;;;;;0.73;0.68;;;;;;;11.49;100.00;101483.13;6250841;28;20057;-78
2022/09/23 08:51:36;;;;;;;0.73;0.70;;;;;;;11.56;100.00;101466.13;6250157;28;20431;-77
2022/09/23 08:54:37;;;;;;;0.65;0.65;;;;;;;11.76;96.53;101465.19;6250334;28;20060;-78
2022/09/23 08:57:45;;;;;;;0.60;0.60;;;;;;;11.91;96.19;101464.53;6250321;28;20400;-78
2022/09/23 09:00:59;;;;;;;1.13;0.52;;;;;;;11.99;95.07;101464.16;6250208;28;20136;-78
2022/09/23 09:04:03;;;;;;;1.17;0.68;;;;;;;12.16;92.60;101461.56;6249854;28;20071;-77
2022/09/23 09:07:14;;;;;;;2.70;1.17;;;;;;;12.26;92.44;101462.81;6250383;28;20060;-78
2022/09/23 09:10:19;;;;;;;1.38;0.82;;;;;;;12.30;93.38;101463.53;6249645;28;20056;-77
2022/09/23 09:13:31;;;;;;;1.15;0.75;;;;;;;12.30;95.32;101456.47;6249763;28;20056;-77
2022/09/23 09:16:50;;;;;;;0.70;0.70;;;;;;;12.28;96.60;101463.59;6224997;28;20050;-77
2022/09/23 09:19:55;;;;;;;1.35;0.70;;;;;;;12.34;93.62;101458.03;6224761;28;20045;-77
2022/09/23 09:22:58;;;;;;;4.32;1.20;;;;;;;12.36;95.72;101453.56;6225511;28;20140;-77
2022/09/23 09:26:01;;;;;;;2.60;0.90;;;;;;;12.39;94.28;101448.09;6234722;28;20045;-77
2022/09/23 09:29:10;;;;;;;3.05;0.70;;;;;;;12.51;92.53;101445.81;6249884;28;20052;-77
2022/09/23 09:32:19;;;;;;;1.05;0.70;;;;;;;12.60;90.07;101440.91;6249502;28;20053;-77
2022/09/23 09:35:35;;;;;;;0.77;0.70;;;;;;;12.63;91.45;101437.28;6249213;28;20053;-78
2022/09/23 09:38:37;;;;;;;2.83;0.95;;;;;;;12.82;89.23;101435.41;6249801;28;20096;-77
2022/09/23 09:41:41;;;;;;;2.65;1.33;;;;;;;12.92;90.41;101428.72;6249153;28;20049;-80
2022/09/23 09:44:51;;;;;;;1.55;0.60;;;;;;;13.00;90.85;101430.09;6249248;28;20064;-78
2022/09/23 09:48:01;;;;;;;1.13;0.80;;;;;;;13.08;90.59;101420.84;6249380;28;20491;-78
2022/09/23 09:51:18;;;;;;;1.58;0.68;;;;;;;13.24;88.80;101420.06;6249061;28;20057;-77
2022/09/23 09:54:23;;;;;;;0.98;0.77;;;;;;;13.35;88.05;101418.56;6248815;28;20063;-78
2022/09/23 09:57:30;;;;;;;0.98;0.75;;;;;;;13.42;87.83;101413.78;6249202;28;20056;-77
2022/09/23 10:00:41;;;;;;;2.30;0.95;;;;;;;13.45;90.25;101405.72;6248966;28;20050;-77
2022/09/23 10:03:44;;;;;;;8.70;0.93;;;;;;;13.53;91.52;101402.63;6248623;28;20056;-77
2022/09/23 10:07:04;;;;;;;1.20;0.77;;;;;;;13.69;86.35;101396.41;6249123;28;20054;-75
2022/09/23 10:10:19;;;;;;;1.23;0.70;;;;;;;13.74;87.18;101392.66;6248564;28;20054;-77
2022/09/23 10:13:22;;;;;;;1.30;0.65;;;;;;;13.76;88.12;101396.06;6249054;28;20140;-75
2022/09/23 10:16:26;;;;;;;5.05;0.95;;;;;;;13.83;85.90;101394.78;6248271;28;20416;-75
2022/09/23 10:19:29;;;;;;;3.38;0.80;;;;;;;13.90;83.70;101390.88;6249525;28;20205;-76
2022/09/23 10:22:35;;;;;;;0.82;0.65;;;;;;;14.07;84.84;101395.16;6248910;28;20060;-77
2022/09/23 10:25:36;;;;;;;0.90;0.85;;;;;;;14.20;85.37;101390.88;6248334;28;20060;-76
2022/09/23 10:28:49;;;;;;;5.32;0.80;;;;;;;14.37;84.15;101388.09;6248298;28;20408;-75
2022/09/23 10:32:26;;;;;;;1.48;0.70;;;;;;;14.63;78.71;101388.41;6248122;28;20061;-76
2022/09/23 10:35:29;;;;;;;0.82;0.63;;;;;;;14.65;81.67;101391.78;6264157;22;20050;-75
2022/09/23 10:38:31;;;;;;;0.93;0.70;;;;;;;14.66;80.85;101393.47;6223607;28;20465;-75
2022/09/23 10:48:50;;;;;;;1.02;0.70;;;;;;;14.84;76.71;101386.22;6199264;28;20050;-75
2022/09/23 10:52:04;;;;;;;1.02;0.57;;;;;;;14.91;78.08;101371.69;6198634;28;20054;-74
2022/09/23 10:55:16;;;;;;;0.60;0.60;;;;;;;14.94;75.08;101375.00;6213393;28;20421;-75
2022/09/23 10:58:39;;;;;;;1.10;0.85;;;;;;;14.99;74.78;101366.78;6221949;28;20050;-75
2022/09/23 11:01:48;;;;;;;3.75;0.68;;;;;;;15.00;74.25;101375.56;6216930;28;20050;-75
2022/09/23 11:05:13;;;;;;;0.80;0.73;;;;;;;15.11;72.13;101366.00;6222272;28;20053;-75
2022/09/23 11:08:35;;;;;;;2.28;0.47;;;;;;;15.17;71.51;101373.56;6222893;28;20046;-75
2022/09/23 11:11:48;;;;;;;1.42;1.17;;;;;;;15.13;70.59;101377.34;6222846;28;20132;-77
2022/09/23 11:15:05;;;;;;;1.52;0.77;;;;;;;15.27;70.62;101370.34;6222365;28;20176;-74
2022/09/23 11:18:33;;;;;;;1.55;0.80;;;;;;;15.34;71.15;101366.34;6223208;28;20183;-74
2022/09/23 11:21:50;;;;;;;1.25;0.95;;;;;;;15.38;69.22;101357.25;6222180;28;20394;-75
2022/09/23 11:25:07;;;;;;;0.93;0.77;;;;;;;15.43;70.98;101355.16;6222025;28;20147;-74
2022/09/23 11:28:28;;;;;;;0.98;0.70;;;;;;;15.38;72.28;101352.81;6222830;28;20056;-74
2022/09/23 11:31:37;;;;;;;1.30;0.70;;;;;;;15.42;72.80;101351.66;6221983;28;20046;-74
2022/09/23 11:34:54;;;;;;;1.13;0.80;;;;;;;15.46;70.78;101347.03;6222327;28;20072;-74
2022/09/23 11:38:05;;;;;;;0.80;0.80;;;;;;;15.51;72.13;101352.03;6222352;28;20049;-75
2022/09/23 11:41:17;;;;;;;1.38;0.73;;;;;;;15.59;68.76;101344.44;6221363;28;20057;-74
2022/09/23 11:44:22;;;;;;;0.98;0.57;;;;;;;15.66;66.95;101340.47;6221789;28;20058;-75
2022/09/23 11:47:29;;;;;;;1.77;0.88;;;;;;;15.72;65.66;101330.34;6222214;28;20056;-75
2022/09/23 11:50:36;;;;;;;1.10;0.60;;;;;;;15.83;66.55;101334.06;6221574;28;20046;-74
2022/09/23 11:53:45;;;;;;;2.33;0.88;;;;;;;15.82;67.51;101333.22;6222076;28;20049;-75
2022/09/23 11:56:51;;;;;;;2.20;0.93;;;;;;;15.87;69.30;101327.63;6220669;28;20524;-75
2022/09/23 11:59:58;;;;;;;5.15;1.13;;;;;;;15.93;68.47;101322.75;6221227;28;20485;-74
2022/09/23 12:03:14;;;;;;;3.00;0.90;;;;;;;16.02;66.35;101318.63;6212680;28;20057;-74
2022/09/23 12:06:20;;;;;;;0.82;0.73;;;;;;;16.08;67.41;101312.94;6207322;28;20042;-74
2022/09/23 12:09:27;;;;;;;0.60;0.60;;;;;;;16.12;67.17;101310.91;6207357;28;20054;-74
2022/09/23 12:12:35;;;;;;;0.80;0.70;;;;;;;16.18;69.63;101313.16;6213451;28;20081;-74
2022/09/23 12:15:49;;;;;;;3.67;0.80;;;;;;;16.12;66.47;101301.16;6221465;28;20520;-74
2022/09/23 12:19:03;;;;;;;0.93;0.80;;;;;;;16.12;66.42;101303.81;6221926;28;20046;-74
2022/09/23 12:22:22;;;;;;;1.73;1.08;;;;;;;16.11;66.81;101298.59;6221221;28;20133;-74
2022/09/23 12:25:42;;;;;;;1.10;0.80;;;;;;;16.08;68.63;101297.03;6221261;28;20121;-74
2022/09/23 12:28:47;;;;;;;2.80;0.90;;;;;;;16.12;64.77;101295.00;6221740;28;20061;-75
2022/09/23 12:31:49;;;;;;;2.05;1.05;;;;;;;16.17;64.56;101296.41;6221178;28;20057;-75
2022/09/23 12:34:52;;;;;;;1.65;0.80;;;;;;;16.23;66.38;101293.31;6221294;28;20050;-74
2022/09/23 12:37:54;;;;;;;1.40;0.90;;;;;;;16.22;66.25;101288.13;6221536;28;20062;-74
2022/09/23 12:40:57;;;;;;;1.17;0.80;;;;;;;16.26;66.95;101289.63;6221475;28;20054;-75
2022/09/23 12:44:12;;;;;;;1.27;0.77;;;;;;;16.28;63.86;101289.50;6220980;28;20049;-74
2022/09/23 12:47:38;;;;;;;1.20;0.80;;;;;;;16.24;65.80;101284.41;6221843;28;20196;-74
2022/09/23 12:50:53;;;;;;;1.50;1.02;;;;;;;16.29;63.92;101280.59;6217634;28;20050;-75
2022/09/23 12:54:23;;;;;;;3.63;0.98;;;;;;;16.35;65.26;101274.84;6224141;28;20053;-75
2022/09/23 12:57:46;;;;;;;;;;;;;;;16.40;63.50;101275.41;6226389;28;20150;-77
2022/09/23 13:01:06;;;;;;;8.98;3.03;;;;;;;16.41;65.10;101270.00;6223294;28;19921;-76
2022/09/23 13:07:49;;;;;;;2.03;0.70;;;;;;;16.47;61.26;101274.88;6227291;28;20041;-75
2022/09/23 13:10:55;;;;;;;3.45;0.77;;;;;;;16.52;61.93;101271.03;6226858;28;20406;-80
2022/09/23 13:14:00;;;;;;;0.82;0.70;;;;;;;16.54;61.60;101274.47;6226705;28;20053;-79
2022/09/23 13:17:04;;;;;;;3.75;0.90;;;;;;;16.57;62.85;101277.72;6228856;28;20061;-75
2022/09/23 13:20:27;;;;;;;1.85;0.82;;;;;;;16.59;61.17;101267.00;6224993;28;20573;-75
2022/09/23 13:23:30;;;;;;;2.28;0.98;;;;;;;16.59;61.21;101269.66;6225242;28;20061;-75
2022/09/23 13:26:32;;;;;;;1.25;0.60;;;;;;;16.54;63.30;101270.00;6224754;28;20545;-75
2022/09/23 13:29:39;;;;;;;3.53;1.10;;;;;;;16.58;63.53;101270.59;6225450;28;20046;-75
2022/09/23 13:32:46;;;;;;;1.40;0.80;;;;;;;16.59;62.28;101256.41;6225067;28;20049;-75
2022/09/23 13:35:50;;;;;;;0.70;0.70;;;;;;;16.62;64.80;101258.81;6224925;28;20077;-75
2022/09/23 13:38:51;;;;;;;2.03;0.70;;;;;;;16.62;62.58;101257.03;6224880;28;20156;-75
2022/09/23 13:41:55;;;;;;;0.95;0.70;;;;;;;16.67;62.58;101252.25;6225088;28;20061;-75
2022/09/23 13:44:59;;;;;;;1.67;0.80;;;;;;;16.71;62.76;101253.75;6224402;28;20409;-76
2022/09/23 13:48:04;;;;;;;2.25;0.80;;;;;;;16.79;63.21;101252.34;6222647;28;20047;-75
2022/09/23 13:51:09;;;;;;;5.18;0.88;;;;;;;16.81;63.87;101253.13;6211046;28;20125;-76
2022/09/23 13:54:28;;;;;;;1.25;0.80;;;;;;;16.85;63.11;101250.13;6217448;28;20168;-76
2022/09/23 13:57:32;;;;;;;4.10;0.93;;;;;;;16.88;63.33;101241.94;6224525;28;20137;-76
2022/09/23 14:00:36;;;;;;;2.50;0.80;;;;;;;16.94;64.66;101237.97;6224197;28;20046;-76
2022/09/23 14:03:39;;;;;;;0.88;0.70;;;;;;;16.97;65.68;101243.91;6221661;28;20494;-76
2022/09/23 14:06:41;;;;;;;3.35;0.85;;;;;;;16.96;64.34;101236.06;6215696;28;20050;-76
2022/09/23 14:09:44;;;;;;;0.50;0.50;;;;;;;16.97;63.25;101237.75;6224230;28;20049;-76
2022/09/23 14:12:47;;;;;;;1.73;0.70;;;;;;;16.98;61.99;101231.47;6224310;28;20049;-76
2022/09/23 14:15:48;;;;;;;1.38;0.90;;;;;;;16.93;60.98;101234.47;6223903;28;20054;-75
2022/09/23 14:18:56;;;;;;;0.98;0.80;;;;;;;16.90;62.83;101239.19;6224241;28;20057;-76
2022/09/23 14:21:57;;;;;;;1.10;0.70;;;;;;;16.84;63.24;101234.28;6224120;28;20054;-76
2022/09/23 14:24:59;;;;;;;1.38;0.88;;;;;;;16.81;64.32;101223.91;6216095;28;20136;-76
2022/09/23 14:28:01;;;;;;;1.48;0.73;;;;;;;16.77;62.41;101228.59;6223863;28;20046;-75
2022/09/23 14:31:02;;;;;;;3.20;1.00;;;;;;;16.70;64.69;101219.31;6222606;28;20050;-75
2022/09/23 14:34:05;;;;;;;1.63;0.80;;;;;;;16.74;60.46;101215.53;6222412;28;20421;-76
2022/09/23 14:40:49;;;;;;;0.85;0.70;;;;;;;16.72;61.98;101212.16;6223224;28;20480;-75